Time;durP1;ratioP1;P1;durP2;ratioP2;P2;SDS_P1;SDS_P2;PMS_P1;PMS_P2;Temp;Humidity;BMP_temperature;BMP_pressure;BME280_temperature;BME280_humidity;BME280_pressure;Samples;Min_cycle;Max_cycle;Signal;HPM_P1;HPM_P2
2022/07/01 06:51:00;;;;;;;;;;;;;;;20.69;66.08;100326.28;5014533;28;1871;-96
2022/07/01 06:53:55;;;;;;;;;;;;;;;20.69;65.94;100334.50;5010972;28;636;-96
2022/07/01 06:59:54;;;;;;;;;;;;;;;20.70;65.83;100340.78;5012845;28;830;-96
2022/07/01 07:02:56;;;;;;;;;;;;;;;20.69;66.06;100334.50;4999789;28;688;-96
2022/07/01 07:12:15;;;;;;;;;;;;;;;20.70;65.96;100324.38;5019614;28;1906;-96
2022/07/01 07:25:49;;;;;;;;;;;;;;;20.71;65.85;100326.03;4986869;28;1191;-96
2022/07/01 07:28:42;;;;;;;;;;;;;;;20.71;65.70;100321.34;4999862;28;799;-96
2022/07/01 07:31:36;;;;;;;;;;;;;;;20.72;66.06;100311.22;4988442;28;1979;-96
2022/07/01 07:34:27;;;;;;;;;;;;;;;20.72;65.93;100313.97;4984890;28;1174;-96
2022/07/01 07:37:19;;;;;;;;;;;;;;;20.72;65.92;100312.03;4964659;28;2070;-96
2022/07/01 07:40:12;;;;;;;;;;;;;;;20.71;65.98;100310.41;4988643;28;645;-96
2022/07/01 07:43:05;;;;;;;;;;;;;;;20.73;65.90;100312.84;4987111;28;665;-96
2022/07/01 07:45:57;;;;;;;;;;;;;;;20.73;65.85;100301.91;4985896;28;1278;-96
2022/07/01 07:48:48;;;;;;;;;;;;;;;20.73;65.96;100302.69;4981275;28;1439;-96
2022/07/01 07:51:40;;;;;;;;;;;;;;;20.74;65.99;100303.53;4971616;28;1959;-96
2022/07/01 07:54:31;;;;;;;;;;;;;;;20.74;65.94;100307.09;4969280;28;2199;-96
2022/07/01 07:57:23;;;;;;;;;;;;;;;20.74;65.91;100309.00;4985784;28;720;-96
2022/07/01 08:00:14;;;;;;;;;;;;;;;20.74;66.11;100307.09;4978839;28;1327;-96
2022/07/01 08:03:06;;;;;;;;;;;;;;;20.75;65.88;100302.44;4965251;29;630;-96
2022/07/01 08:05:58;;;;;;;;;;;;;;;20.75;65.87;100302.44;4966739;29;701;-96
2022/07/01 08:08:51;;;;;;;;;;;;;;;20.76;65.88;100301.31;4971148;28;1647;-96
2022/07/01 08:11:43;;;;;;;;;;;;;;;20.76;66.01;100291.16;4978734;28;1974;-96
2022/07/01 08:14:35;;;;;;;;;;;;;;;20.76;65.86;100296.63;4991666;28;2307;-96
2022/07/01 08:17:27;;;;;;;;;;;;;;;20.76;65.92;100293.91;4974587;28;1667;-96
2022/07/01 08:20:19;;;;;;;;;;;;;;;20.78;65.93;100294.44;4982840;28;1769;-96
2022/07/01 08:23:11;;;;;;;;;;;;;;;20.78;65.79;100297.16;4990018;28;1365;-96
2022/07/01 08:29:00;;;;;;;;;;;;;;;20.79;65.89;100296.06;5396883;23;1650;-96
2022/07/01 08:31:53;;;;;;;;;;;;;;;20.79;65.93;100293.31;5002426;28;1951;-96
2022/07/01 08:59:51;;;;;;;;;;;;;;;20.86;65.92;100288.31;4998731;28;1333;-96
2022/07/01 09:05:51;;;;;;;;;;;;;;;20.87;65.71;100295.41;4992409;28;696;-96
2022/07/01 09:08:46;;;;;;;;;;;;;;;20.89;65.72;100300.59;4991082;28;653;-96
2022/07/01 09:11:43;;;;;;;;;;;;;;;20.89;65.85;100291.56;4995011;28;1907;-96
2022/07/01 09:14:39;;;;;;;;;;;;;;;20.90;65.70;100291.25;4998304;28;1994;-96
2022/07/01 09:17:31;;;;;;;;;;;;;;;20.91;66.03;100289.34;4987837;28;2052;-96
2022/07/01 09:20:23;;;;;;;;;;;;;;;20.92;65.83;100294.53;4986064;28;2046;-96
2022/07/01 09:23:15;;;;;;;;;;;;;;;20.92;65.79;100310.16;4985398;28;2133;-96
2022/07/01 09:26:08;;;;;;;;;;;;;;;20.92;65.94;100305.47;4989213;28;2030;-96
2022/07/01 09:29:00;;;;;;;;;;;;;;;20.94;65.92;100299.69;4962340;28;2262;-96
2022/07/01 09:31:52;;;;;;;;;;;;;;;20.94;65.76;100300.53;4969553;28;1961;-96
2022/07/01 09:34:44;;;;;;;;;;;;;;;20.95;65.94;100298.59;4964956;28;1342;-96
2022/07/01 09:37:36;;;;;;;;;;;;;;;20.95;66.02;100296.69;4978684;28;1937;-96
2022/07/01 09:40:28;;;;;;;;;;;;;;;20.96;65.93;100294.75;4972952;28;1097;-96
2022/07/01 09:43:20;;;;;;;;;;;;;;;20.96;65.94;100292.81;4960899;28;1264;-96
2022/07/01 09:46:12;;;;;;;;;;;;;;;20.98;66.16;100298.00;4971150;28;1581;-96
2022/07/01 09:49:04;;;;;;;;;;;;;;;20.98;66.00;100301.56;4968845;28;1993;-96
2022/07/01 09:51:57;;;;;;;;;;;;;;;20.98;66.09;100312.50;4970931;28;1903;-96
2022/07/01 09:54:49;;;;;;;;;;;;;;;20.99;65.86;100319.59;4964722;28;1973;-95
2022/07/01 09:57:41;;;;;;;;;;;;;;;21.01;65.81;100317.41;4964304;28;2016;-96
2022/07/01 10:00:33;;;;;;;;;;;;;;;21.00;65.96;100313.03;4968544;28;2093;-95
2022/07/01 10:03:25;;;;;;;;;;;;;;;21.00;66.21;100307.56;4963615;28;1217;-96
2022/07/01 10:06:17;;;;;;;;;;;;;;;21.02;66.10;100305.31;4968717;28;2051;-96
2022/07/01 10:09:09;;;;;;;;;;;;;;;21.02;65.85;100301.78;4967124;28;1919;-96
2022/07/01 10:12:02;;;;;;;;;;;;;;;21.03;65.90;100300.66;4962412;28;2006;-96
2022/07/01 10:14:53;;;;;;;;;;;;;;;21.02;65.91;100297.13;4972356;28;2040;-96
2022/07/01 10:17:44;;;;;;;;;;;;;;;21.03;66.00;100297.91;4968583;28;2072;-96
2022/07/01 10:20:36;;;;;;;;;;;;;;;21.03;66.00;100296.03;4968031;28;2212;-96
2022/07/01 10:23:28;;;;;;;;;;;;;;;21.04;66.31;100300.38;4966771;28;1999;-96
2022/07/01 10:26:20;;;;;;;;;;;;;;;21.04;66.09;100305.03;4967361;28;1384;-96
2022/07/01 10:29:12;;;;;;;;;;;;;;;21.05;65.96;100303.91;4968349;28;1825;-96
2022/07/01 10:32:04;;;;;;;;;;;;;;;21.05;66.22;100303.91;4971034;28;2015;-96
2022/07/01 10:34:55;;;;;;;;;;;;;;;21.04;66.27;100297.63;4963700;28;2100;-96
2022/07/01 10:37:47;;;;;;;;;;;;;;;21.05;66.21;100293.78;4957479;28;1110;-96
2022/07/01 10:40:39;;;;;;;;;;;;;;;21.06;66.31;100294.59;4974757;28;2375;-96
2022/07/01 10:43:31;;;;;;;;;;;;;;;21.05;66.26;100280.09;4979560;28;998;-96
2022/07/01 10:46:23;;;;;;;;;;;;;;;21.06;66.12;100297.31;4971948;28;1388;-96
2022/07/01 10:49:15;;;;;;;;;;;;;;;21.07;66.24;100286.09;4961953;28;1242;-96
2022/07/01 10:52:07;;;;;;;;;;;;;;;21.07;66.17;100283.34;4962383;28;1928;-96
2022/07/01 10:55:00;;;;;;;;;;;;;;;21.07;66.38;100288.84;4968870;28;1224;-96
2022/07/01 10:57:52;;;;;;;;;;;;;;;21.07;66.23;100299.78;4971923;28;1192;-96
2022/07/01 11:00:43;;;;;;;;;;;;;;;21.09;66.43;100291.28;4973518;28;1105;-96
2022/07/01 11:03:34;;;;;;;;;;;;;;;21.08;66.41;100290.44;4979198;28;1296;-96
2022/07/01 11:06:26;;;;;;;;;;;;;;;21.09;66.33;100294.03;4966709;28;1884;-93
2022/07/01 11:09:18;;;;;;;;;;;;;;;21.09;66.37;100286.63;4974172;28;2116;-93
2022/07/01 11:12:10;;;;;;;;;;;;;;;21.11;66.29;100291.78;4970622;28;2402;-94
2022/07/01 11:15:02;;;;;;;;;;;;;;;21.12;66.44;100287.13;4967813;29;669;-96
2022/07/01 11:17:55;;;;;;;;;;;;;;;21.11;66.39;100275.34;4967531;29;676;-96
2022/07/01 11:20:47;;;;;;;;;;;;;;;21.12;66.44;100278.91;4972998;28;1233;-96
2022/07/01 11:23:38;;;;;;;;;;;;;;;21.12;66.45;100277.00;4984787;28;739;-96
2022/07/01 11:26:30;;;;;;;;;;;;;;;21.13;66.19;100266.88;4985049;28;668;-96
2022/07/01 11:29:22;;;;;;;;;;;;;;;21.14;66.31;100276.69;4983814;28;1427;-96
2022/07/01 11:32:14;;;;;;;;;;;;;;;21.14;66.34;100284.91;4976657;28;1911;-96
2022/07/01 11:39:21;;;;;;;;;;;;;;;21.14;66.10;100277.50;4970471;28;1326;-96
2022/07/01 11:41:26;;;;;;;;;;;;;;;21.15;66.35;100275.56;4963474;28;1301;-96
2022/07/01 11:44:18;;;;;;;;;;;;;;;21.16;66.47;100282.69;4963353;29;1299;-96
2022/07/01 11:47:11;;;;;;;;;;;;;;;21.16;66.08;100279.97;4963686;29;668;-96
2022/07/01 11:50:02;;;;;;;;;;;;;;;21.17;66.50;100279.66;4972434;28;1055;-96
2022/07/01 11:52:54;;;;;;;;;;;;;;;21.18;66.17;100277.72;4971991;28;1906;-96
2022/07/01 11:55:45;;;;;;;;;;;;;;;21.17;66.36;100276.91;4972273;28;1349;-96
2022/07/01 11:58:36;;;;;;;;;;;;;;;21.19;66.48;100276.63;4972255;28;1280;-96
2022/07/01 12:01:28;;;;;;;;;;;;;;;21.19;66.12;100277.44;4981885;28;641;-96
2022/07/01 12:17:01;;;;;;;;;;;;;;;21.22;66.30;100271.34;4914015;28;959;-96
2022/07/01 13:00:46;;;;;;;;;;;;;;;21.35;66.25;100244.31;5306208;23;2089;-96
2022/07/01 13:06:47;;;;;;;;;;;;;;;21.36;66.57;100238.59;4975126;29;838;-96
2022/07/01 13:12:49;;;;;;;;;;;;;;;21.39;66.33;100248.13;4975545;29;1908;-96
2022/07/01 13:15:44;;;;;;;;;;;;;;;21.40;66.46;100261.53;4974494;29;633;-96
2022/07/01 13:21:47;;;;;;;;;;;;;;;21.42;66.28;100255.75;4976352;29;681;-96
2022/07/01 13:24:47;;;;;;;;;;;;;;;21.42;66.45;100248.34;4976953;29;623;-96
2022/07/01 13:37:08;;;;;;;;;;;;;;;21.48;66.55;100251.81;4977707;29;1397;-96
2022/07/01 14:11:13;;;;;;;;;;;;;;;21.57;66.63;100241.78;4926380;28;866;-96
2022/07/01 14:14:05;;;;;;;;;;;;;;;21.59;66.66;100249.69;4949166;29;2107;-96
2022/07/01 14:16:57;;;;;;;;;;;;;;;21.60;66.44;100240.38;4956392;28;2104;-95
2022/07/01 14:19:49;;;;;;;;;;;;;;;21.60;66.52;100243.13;4956794;29;1871;-95
2022/07/01 14:22:41;;;;;;;;;;;;;;;21.61;66.43;100245.53;4949660;29;1998;-96
2022/07/01 14:25:33;;;;;;;;;;;;;;;21.62;66.50;100238.13;4960643;29;1043;-96
2022/07/01 14:28:25;;;;;;;;;;;;;;;21.62;66.52;100229.91;4960213;29;1111;-96
2022/07/01 14:31:17;;;;;;;;;;;;;;;21.63;66.62;100243.31;4953037;29;1873;-96
2022/07/01 14:34:08;;;;;;;;;;;;;;;21.64;66.69;100233.97;4940951;29;1607;-96
2022/07/01 14:37:00;;;;;;;;;;;;;;;21.65;66.87;100243.84;4955348;29;1600;-96
2022/07/01 14:39:56;;;;;;;;;;;;;;;21.66;66.76;100247.41;4956438;29;1834;-96
2022/07/01 14:42:48;;;;;;;;;;;;;;;21.67;66.81;100244.34;4967154;29;2096;-96
2022/07/01 14:54:40;;;;;;;;;;;;;;;21.72;66.60;100238.78;5769273;23;1773;-96
2022/07/01 14:57:35;;;;;;;;;;;;;;;21.74;66.72;100242.03;4972571;28;633;-96
2022/07/01 15:00:28;;;;;;;;;;;;;;;21.74;66.69;100235.75;4980043;28;1584;-96
2022/07/01 15:03:21;;;;;;;;;;;;;;;21.76;66.79;100242.53;4993799;28;641;-96
2022/07/01 15:06:13;;;;;;;;;;;;;;;21.77;66.84;100238.69;4990983;28;689;-96
2022/07/01 15:09:05;;;;;;;;;;;;;;;21.78;66.96;100239.50;4991906;28;1665;-96
2022/07/01 15:12:01;;;;;;;;;;;;;;;21.80;67.00;100241.94;4968904;29;1906;-96
2022/07/01 15:18:07;;;;;;;;;;;;;;;21.81;66.96;100255.34;4989093;28;1673;-96
2022/07/01 15:24:06;;;;;;;;;;;;;;;21.84;67.15;100242.97;4972011;28;1299;-96
2022/07/01 15:26:58;;;;;;;;;;;;;;;21.85;66.90;100248.13;4976032;28;2004;-96
2022/07/01 15:29:50;;;;;;;;;;;;;;;21.87;67.13;100236.88;4984982;28;1265;-96
2022/07/01 15:32:42;;;;;;;;;;;;;;;21.88;66.94;100235.75;4975174;28;1972;-96
2022/07/01 15:35:34;;;;;;;;;;;;;;;21.88;67.10;100233.81;4980471;28;1971;-96
2022/07/01 15:38:26;;;;;;;;;;;;;;;21.90;67.11;100237.06;4989922;28;1533;-96
2022/07/01 15:41:18;;;;;;;;;;;;;;;21.91;67.19;100238.72;4984788;28;1417;-96
2022/07/01 15:44:10;;;;;;;;;;;;;;;21.92;67.15;100245.81;4986302;28;640;-96
2022/07/01 15:48:05;;;;;;;;;;;;;;;21.93;67.00;100239.22;4988721;28;1671;-96
2022/07/01 15:50:19;;;;;;;;;;;;;;;21.95;67.17;100247.94;4985078;28;1306;-96
2022/07/01 15:53:17;;;;;;;;;;;;;;;21.97;67.14;100247.63;4954281;29;1929;-96
2022/07/01 15:56:11;;;;;;;;;;;;;;;21.98;67.07;100244.59;4961612;29;1733;-96
2022/07/01 15:59:18;;;;;;;;;;;;;;;21.99;67.24;100256.38;4955613;29;1614;-96
2022/07/01 16:02:10;;;;;;;;;;;;;;;22.02;67.24;100252.22;4976276;29;736;-96
2022/07/01 16:05:07;;;;;;;;;;;;;;;22.02;67.16;100258.50;4958371;29;1827;-96
2022/07/01 16:08:00;;;;;;;;;;;;;;;22.04;66.97;100255.47;4978203;28;1317;-96
2022/07/01 16:10:53;;;;;;;;;;;;;;;22.04;67.14;100259.03;4951242;29;2133;-96
2022/07/01 16:13:48;;;;;;;;;;;;;;;22.06;67.10;100264.19;4949629;29;1929;-96
2022/07/01 16:16:42;;;;;;;;;;;;;;;22.06;67.24;100262.28;4953193;29;1242;-96
2022/07/01 16:22:11;;;;;;;;;;;;;;;22.08;67.33;100260.03;5006307;28;1433;-96
2022/07/01 16:25:28;;;;;;;;;;;;;;;22.09;67.10;100252.63;5093905;23;2139;-96
2022/07/01 16:51:23;;;;;;;;;;;;;;;22.19;67.16;100260.69;5049662;23;2100;-96
2022/07/01 17:06:32;;;;;;;;;;;;;;;22.23;67.23;100278.97;4976109;28;834;-96
2022/07/01 17:09:24;;;;;;;;;;;;;;;22.24;67.29;100277.06;4977078;28;846;-96
2022/07/01 17:12:17;;;;;;;;;;;;;;;22.25;67.22;100275.94;4976334;28;1969;-96
2022/07/01 17:15:14;;;;;;;;;;;;;;;22.25;67.33;100278.69;4976611;28;803;-96
2022/07/01 17:18:09;;;;;;;;;;;;;;;22.26;67.33;100271.25;4979796;28;681;-96
2022/07/01 17:26:47;;;;;;;;;;;;;;;22.28;67.10;100269.03;5473227;23;2389;-96
2022/07/01 17:29:39;;;;;;;;;;;;;;;22.28;67.22;100263.53;5013204;28;696;-96
2022/07/01 17:32:44;;;;;;;;;;;;;;;22.29;66.92;100267.91;5000410;28;1933;-96
2022/07/01 17:35:35;;;;;;;;;;;;;;;22.28;67.25;100258.06;5005448;28;1675;-97
2022/07/01 17:38:31;;;;;;;;;;;;;;;22.29;67.09;100260.47;5014478;28;637;-96
2022/07/01 17:47:44;;;;;;;;;;;;;;;22.30;67.19;100266.81;4997815;28;1355;-96
2022/07/01 17:50:36;;;;;;;;;;;;;;;22.30;67.20;100255.81;4992542;28;1752;-96
2022/07/01 18:25:53;;;;;;;;;;;;;;;22.32;66.74;100276.31;5016735;28;672;-96
2022/07/01 18:35:12;;;;;;;;;;;;;;;22.31;66.94;100296.66;5009693;28;1126;-96
2022/07/01 18:38:04;;;;;;;;;;;;;;;22.32;66.78;100291.97;4986985;28;2344;-96
2022/07/01 18:40:56;;;;;;;;;;;;;;;22.31;66.84;100296.66;4976362;28;1268;-96
2022/07/01 18:43:48;;;;;;;;;;;;;;;21.86;66.97;100227.03;4988772;28;1405;-96
2022/07/01 18:46:40;;;;;;;;;;;;;;;22.31;66.86;100293.09;4994434;28;1289;-96
2022/07/01 18:49:33;;;;;;;;;;;;;;;22.31;66.93;100293.91;4987599;28;2364;-96
2022/07/01 18:52:25;;;;;;;;;;;;;;;22.30;66.89;100286.81;4975898;28;1907;-96
2022/07/01 18:55:17;;;;;;;;;;;;;;;22.31;67.10;100290.34;4992239;28;1480;-96
2022/07/01 18:58:10;;;;;;;;;;;;;;;22.29;66.86;100285.16;4989046;28;1904;-96
2022/07/01 19:01:02;;;;;;;;;;;;;;;22.29;66.83;100276.13;4982334;28;2106;-95
2022/07/01 19:03:54;;;;;;;;;;;;;;;22.30;66.92;100283.25;4997011;28;1588;-94
2022/07/01 19:06:46;;;;;;;;;;;;;;;22.30;66.94;100280.53;4996288;28;1982;-95
2022/07/01 19:09:38;;;;;;;;;;;;;;;22.29;67.03;100279.69;4992584;28;1864;-95
2022/07/01 19:12:30;;;;;;;;;;;;;;;22.28;66.90;100283.56;4989204;28;1914;-95
2022/07/01 19:15:22;;;;;;;;;;;;;;;22.29;67.04;100281.63;4985714;28;1117;-95
2022/07/01 19:18:14;;;;;;;;;;;;;;;22.29;66.93;100276.13;4979339;28;1043;-94
2022/07/01 19:21:06;;;;;;;;;;;;;;;22.28;66.88;100278.06;4990589;28;2525;-95
2022/07/01 19:23:58;;;;;;;;;;;;;;;22.28;67.09;100280.00;4993198;28;2270;-96
2022/07/01 19:26:50;;;;;;;;;;;;;;;22.27;66.98;100279.19;4993093;28;1585;-96
2022/07/01 19:29:42;;;;;;;;;;;;;;;22.27;66.97;100275.63;4988200;28;1926;-96
2022/07/01 19:32:34;;;;;;;;;;;;;;;22.27;66.75;100281.94;4987367;28;1956;-94
2022/07/01 19:35:26;;;;;;;;;;;;;;;22.26;66.85;100280.28;4985485;28;1542;-95
2022/07/01 19:38:18;;;;;;;;;;;;;;;22.27;66.87;100292.09;4991409;28;2114;-95
2022/07/01 19:41:12;;;;;;;;;;;;;;;22.26;66.81;100294.00;4985848;28;2021;-95
2022/07/01 19:44:03;;;;;;;;;;;;;;;22.26;66.80;100302.22;4990147;28;1073;-95
2022/07/01 19:46:55;;;;;;;;;;;;;;;22.25;66.81;100303.34;4985023;28;1569;-95
2022/07/01 19:49:47;;;;;;;;;;;;;;;22.25;66.85;100308.84;4989901;28;986;-95
2022/07/01 19:52:39;;;;;;;;;;;;;;;22.25;66.66;100317.06;4987712;28;1903;-95
2022/07/01 19:55:30;;;;;;;;;;;;;;;22.25;66.75;100319.81;4995939;28;1622;-95
2022/07/01 19:58:22;;;;;;;;;;;;;;;22.23;66.85;100325.59;4995766;28;1156;-95
2022/07/01 20:01:13;;;;;;;;;;;;;;;22.24;66.79;100329.16;4987248;28;1920;-95
2022/07/01 20:04:05;;;;;;;;;;;;;;;22.22;66.89;100334.94;4998159;28;1172;-95
2022/07/01 20:06:58;;;;;;;;;;;;;;;22.23;66.63;100335.75;4993741;28;1935;-94
2022/07/01 20:09:49;;;;;;;;;;;;;;;22.22;66.63;100347.84;4993141;28;3432;-96
2022/07/01 20:12:41;;;;;;;;;;;;;;;22.21;66.89;100349.78;5007756;28;1907;-95
2022/07/01 20:15:33;;;;;;;;;;;;;;;22.21;66.97;100354.47;4991511;28;1905;-95
2022/07/01 20:18:24;;;;;;;;;;;;;;;22.20;66.88;100347.34;4998287;28;649;-95
2022/07/01 20:21:16;;;;;;;;;;;;;;;22.19;66.70;100346.53;4991254;28;1987;-94
2022/07/01 20:24:08;;;;;;;;;;;;;;;22.19;66.93;100342.97;4996255;28;1857;-95
2022/07/01 20:27:00;;;;;;;;;;;;;;;22.19;66.64;100348.47;4997816;28;1856;-94
2022/07/01 20:29:52;;;;;;;;;;;;;;;22.17;66.68;100340.50;4988402;28;1982;-95
2022/07/01 20:32:44;;;;;;;;;;;;;;;22.18;66.85;100338.63;4999359;28;2019;-96
2022/07/01 20:35:36;;;;;;;;;;;;;;;22.17;66.93;100328.75;4996038;28;1852;-96
2022/07/01 20:38:28;;;;;;;;;;;;;;;22.16;66.85;100332.56;4989445;28;1772;-95
2022/07/01 20:41:20;;;;;;;;;;;;;;;22.18;66.96;100333.13;4978057;28;1993;-96
2022/07/01 20:44:12;;;;;;;;;;;;;;;22.15;66.86;100330.97;4979337;28;1761;-96
2022/07/01 20:47:04;;;;;;;;;;;;;;;22.14;66.99;100327.38;4996270;28;1590;-96
2022/07/01 20:49:57;;;;;;;;;;;;;;;22.14;66.66;100337.53;4999896;28;2035;-96
2022/07/01 20:52:49;;;;;;;;;;;;;;;22.14;66.68;100343.84;5013485;28;1907;-96
2022/07/01 20:55:43;;;;;;;;;;;;;;;22.13;66.76;100347.69;4998498;28;704;-96
2022/07/01 20:58:38;;;;;;;;;;;;;;;22.13;66.81;100357.88;4987185;28;645;-96
2022/07/01 21:01:29;;;;;;;;;;;;;;;22.12;66.75;100351.56;4999417;28;936;-96
2022/07/01 21:04:21;;;;;;;;;;;;;;;22.11;66.54;100352.66;5006090;28;1265;-96
2022/07/01 21:07:13;;;;;;;;;;;;;;;22.10;66.65;100351.06;5001476;28;1831;-96
2022/07/01 21:10:05;;;;;;;;;;;;;;;22.10;66.67;100352.97;5000734;28;902;-96
2022/07/01 21:12:57;;;;;;;;;;;;;;;22.10;66.53;100347.50;5000273;28;1907;-96
2022/07/01 21:15:56;;;;;;;;;;;;;;;22.09;66.71;100359.56;5004461;28;1586;-96
2022/07/01 21:18:48;;;;;;;;;;;;;;;22.09;66.68;100354.06;5011496;28;633;-96
2022/07/01 21:21:41;;;;;;;;;;;;;;;22.08;66.78;100355.19;5000509;28;1275;-96
2022/07/01 21:24:34;;;;;;;;;;;;;;;22.07;66.65;100354.41;4986828;28;648;-96
2022/07/01 21:27:27;;;;;;;;;;;;;;;22.07;66.78;100351.66;4989119;28;621;-96
2022/07/01 21:30:18;;;;;;;;;;;;;;;22.06;66.69;100354.69;4989180;28;641;-96
2022/07/01 21:33:12;;;;;;;;;;;;;;;22.06;66.75;100357.44;4996518;28;1940;-96
2022/07/01 21:36:06;;;;;;;;;;;;;;;22.04;66.70;100360.47;5007609;28;774;-96
2022/07/01 21:38:59;;;;;;;;;;;;;;;22.04;66.81;100356.94;5008793;28;736;-96
2022/07/01 21:41:55;;;;;;;;;;;;;;;22.03;66.68;100356.13;5002899;28;637;-96
2022/07/01 21:44:48;;;;;;;;;;;;;;;22.03;66.61;100361.59;5011653;28;1477;-96
2022/07/01 21:47:53;;;;;;;;;;;;;;;22.01;66.59;100352.84;4996956;28;665;-96
2022/07/01 22:03:21;;;;;;;;;;;;;;;21.98;66.72;100347.97;4997122;28;669;-96
2022/07/01 22:12:23;;;;;;;;;;;;;;;21.96;66.86;100361.16;4975907;28;1317;-96
2022/07/01 22:26:02;;;;;;;;;;;;;;;21.93;66.68;100351.59;4995735;28;1263;-96
2022/07/01 22:31:16;;;;;;;;;;;;;;;21.91;66.58;100340.16;4994677;28;1168;-96
2022/07/01 22:42:04;;;;;;;;;;;;;;;21.89;66.58;100350.59;4981638;28;1126;-96
2022/07/01 22:44:37;;;;;;;;;;;;;;;21.89;66.55;100352.53;4967078;28;1259;-96
2022/07/01 22:55:11;;;;;;;;;;;;;;;21.86;66.53;100344.91;4982377;28;1906;-96
2022/07/01 23:00:29;;;;;;;;;;;;;;;21.85;66.61;100346.81;4981997;28;1349;-96
2022/07/01 23:03:17;;;;;;;;;;;;;;;21.85;66.54;100348.75;5000424;28;842;-96
2022/07/01 23:11:21;;;;;;;;;;;;;;;21.83;66.33;100337.28;4981105;28;1296;-96
2022/07/01 23:22:06;;;;;;;;;;;;;;;21.80;66.45;100332.41;4980157;28;1441;-96
2022/07/01 23:27:19;;;;;;;;;;;;;;;21.78;66.35;100338.16;4980620;28;1370;-96
2022/07/01 23:29:51;;;;;;;;;;;;;;;21.78;66.29;100324.47;4996788;28;938;-96
2022/07/01 23:32:20;;;;;;;;;;;;;;;21.77;66.46;100329.13;4976792;28;1291;-96
2022/07/01 23:34:51;;;;;;;;;;;;;;;21.78;66.38;100336.25;4997281;28;1883;-96
2022/07/01 23:37:24;;;;;;;;;;;;;;;21.77;66.27;100339.28;4979827;28;1452;-96
2022/07/01 23:42:37;;;;;;;;;;;;;;;21.75;66.49;100336.84;4981362;28;1308;-96
2022/07/01 23:45:12;;;;;;;;;;;;;;;21.75;66.43;100325.06;4981095;28;1321;-96
2022/07/01 23:47:42;;;;;;;;;;;;;;;21.74;66.42;100323.44;4993710;28;1029;-96
2022/07/01 23:56:04;;;;;;;;;;;;;;;21.72;66.34;100325.66;4994102;28;947;-96
2022/07/01 23:58:58;;;;;;;;;;;;;;;21.71;66.03;100313.09;4998558;28;629;-96
